createdAt,value
2018-12-23T00:03:16.659Z,7.40
2018-12-23T00:08:21.521Z,7.47
2018-12-23T00:13:26.333Z,8.47
2018-12-23T00:18:31.189Z,5.03
2018-12-23T00:23:36.066Z,7.07
2018-12-23T00:28:40.958Z,5.97
2018-12-23T00:33:45.821Z,6.50
2018-12-23T00:38:50.576Z,5.17
2018-12-23T00:43:55.519Z,7.57
2018-12-23T00:49:00.368Z,6.27
2018-12-23T00:54:05.414Z,5.00
2018-12-23T00:59:10.364Z,4.37
2018-12-23T01:04:15.350Z,5.93
2018-12-23T01:09:20.461Z,4.23
2018-12-23T01:14:25.229Z,5.30
2018-12-23T01:19:30.156Z,5.70
2018-12-23T01:24:34.992Z,5.10
2018-12-23T01:29:39.964Z,5.40
2018-12-23T01:34:44.777Z,4.47
2018-12-23T01:39:49.751Z,2.70
2018-12-23T01:44:54.759Z,3.17
2018-12-23T01:49:59.657Z,4.50
2018-12-23T01:55:04.923Z,5.00
2018-12-23T02:00:10.324Z,5.07
2018-12-23T02:05:15.315Z,4.37
2018-12-23T02:10:20.361Z,3.43
2018-12-23T02:15:25.331Z,3.93
2018-12-23T02:20:30.275Z,5.27
2018-12-23T02:25:35.111Z,5.63
2018-12-23T02:30:40.125Z,3.07
2018-12-23T02:35:45.009Z,4.90
2018-12-23T02:40:49.851Z,5.60
2018-12-23T02:45:54.782Z,4.63
2018-12-23T02:50:59.750Z,5.80
2018-12-23T02:56:04.791Z,7.00
2018-12-23T03:01:09.651Z,5.07
2018-12-23T03:06:14.548Z,5.37
2018-12-23T03:11:19.555Z,6.77
2018-12-23T03:16:24.476Z,8.87
2018-12-23T03:21:29.409Z,7.43
2018-12-23T03:26:34.297Z,6.60
2018-12-23T03:31:39.360Z,7.30
2018-12-23T03:36:45.315Z,6.80
2018-12-23T03:41:50.143Z,5.33
2018-12-23T03:46:55.176Z,6.97
2018-12-23T03:51:59.926Z,5.03
2018-12-23T03:57:04.991Z,5.97
2018-12-23T04:02:09.843Z,3.57
2018-12-23T04:07:14.871Z,4.70
2018-12-23T04:12:19.703Z,5.57
2018-12-23T04:17:24.467Z,4.83
2018-12-23T04:22:29.494Z,5.57
2018-12-23T04:27:34.283Z,3.40
2018-12-23T04:32:39.307Z,4.47
2018-12-23T04:37:44.287Z,6.20
2018-12-23T04:42:49.298Z,5.53
2018-12-23T04:47:54.184Z,6.27
2018-12-23T04:52:58.794Z,4.53
2018-12-23T04:58:03.735Z,4.83
2018-12-23T05:03:08.588Z,5.47
2018-12-23T05:08:13.622Z,6.47
2018-12-23T05:13:18.457Z,6.17
2018-12-23T05:18:23.333Z,7.07
2018-12-23T05:23:28.287Z,6.70
2018-12-23T05:28:33.323Z,6.40
2018-12-23T05:33:38.187Z,4.40
2018-12-23T05:38:43.206Z,7.20
2018-12-23T05:43:48.071Z,5.10
2018-12-23T05:48:53.008Z,5.73
2018-12-23T05:53:57.847Z,6.27
2018-12-23T05:59:02.906Z,4.00
2018-12-23T06:04:07.855Z,4.27
2018-12-23T06:09:12.909Z,5.00
2018-12-23T06:14:17.840Z,6.17
2018-12-23T06:19:22.691Z,4.73
2018-12-23T06:24:27.462Z,2.70
2018-12-23T06:29:32.495Z,6.53
2018-12-23T06:34:37.466Z,4.47
2018-12-23T06:39:42.485Z,4.70
2018-12-23T06:44:47.217Z,3.33
2018-12-23T06:49:53.961Z,5.33
2018-12-23T06:54:58.869Z,8.00
2018-12-23T07:00:04.107Z,5.90
2018-12-23T07:05:08.950Z,4.07
2018-12-23T07:10:13.812Z,9.37
2018-12-23T07:15:18.860Z,10.60
2018-12-23T07:20:23.809Z,11.20
2018-12-23T07:25:28.652Z,9.53
2018-12-23T07:30:33.575Z,19.10
2018-12-23T07:35:38.455Z,8.73
2018-12-23T07:40:43.309Z,10.50
2018-12-23T07:45:48.235Z,12.77
2018-12-23T07:50:53.856Z,11.67
2018-12-23T07:55:59.443Z,14.50
2018-12-23T08:01:04.528Z,10.83
2018-12-23T08:06:09.576Z,12.27
2018-12-23T08:11:14.434Z,10.57
2018-12-23T08:16:19.248Z,10.40
2018-12-23T08:21:24.119Z,17.10
2018-12-23T08:26:29.155Z,10.83
2018-12-23T08:31:34.005Z,12.97
2018-12-23T08:36:38.847Z,20.97
2018-12-23T08:41:43.819Z,8.83
2018-12-23T08:46:48.837Z,9.63
2018-12-23T08:51:53.667Z,9.10
2018-12-23T08:56:58.710Z,13.07
2018-12-23T09:02:03.711Z,10.73
2018-12-23T09:07:08.922Z,9.97
2018-12-23T09:12:13.772Z,12.23
2018-12-23T09:17:18.610Z,8.00
2018-12-23T09:22:23.373Z,8.93
2018-12-23T09:27:30.149Z,10.67
2018-12-23T09:32:34.987Z,8.13
2018-12-23T09:37:40.121Z,7.03
2018-12-23T09:42:46.880Z,8.27
2018-12-23T09:47:51.706Z,10.57
2018-12-23T09:52:57.510Z,9.07
2018-12-23T09:58:02.560Z,7.37
2018-12-23T10:03:07.619Z,7.33
2018-12-23T10:08:12.423Z,9.17
2018-12-23T10:13:17.228Z,9.70
2018-12-23T10:18:22.112Z,5.17
2018-12-23T10:23:27.149Z,6.93
2018-12-23T10:28:31.895Z,6.40
2018-12-23T10:33:36.847Z,6.57
2018-12-23T10:38:42.829Z,5.47
2018-12-23T10:43:48.797Z,5.87
2018-12-23T10:48:56.239Z,6.20
2018-12-23T10:54:01.136Z,7.40
2018-12-23T10:59:05.996Z,11.77
2018-12-23T11:04:10.857Z,11.60
2018-12-23T11:09:16.089Z,5.63
2018-12-23T11:14:20.936Z,5.37
2018-12-23T11:19:26.281Z,8.33
2018-12-23T11:24:31.536Z,7.47
2018-12-23T11:29:36.550Z,8.93
2018-12-23T11:34:41.346Z,8.23
2018-12-23T11:39:46.305Z,8.47
2018-12-23T11:44:51.347Z,8.90
2018-12-23T11:49:56.191Z,7.03
2018-12-23T11:55:01.152Z,8.27
2018-12-23T12:00:06.433Z,8.23
2018-12-23T12:05:11.316Z,3.90
2018-12-23T12:10:16.312Z,7.83
2018-12-23T12:15:21.147Z,10.23
2018-12-23T12:20:26.092Z,6.63
2018-12-23T12:25:30.943Z,5.33
2018-12-23T12:30:35.883Z,8.57
2018-12-23T12:35:40.973Z,4.77
2018-12-23T12:40:46.122Z,5.43
2018-12-23T12:45:51.047Z,7.77
2018-12-23T12:50:56.595Z,6.73
2018-12-23T12:56:02.702Z,7.20
2018-12-23T13:01:07.812Z,10.33
2018-12-23T13:06:12.976Z,6.43
2018-12-23T13:11:18.009Z,7.13
2018-12-23T13:16:22.944Z,6.20
2018-12-23T13:21:28.260Z,7.40
2018-12-23T13:26:33.200Z,5.10
2018-12-23T13:31:38.042Z,5.57
2018-12-23T13:36:43.633Z,5.47
2018-12-23T13:41:59.671Z,8.20
2018-12-23T13:47:16.432Z,7.53
2018-12-23T13:53:03.651Z,7.97
2018-12-23T13:58:19.935Z,6.10
2018-12-23T14:04:31.035Z,6.77
2018-12-23T14:10:00.223Z,10.77
2018-12-23T14:15:05.407Z,8.83
2018-12-23T14:20:10.540Z,8.63
2018-12-23T14:25:16.655Z,10.40
2018-12-23T14:30:21.817Z,6.90
2018-12-23T14:35:26.639Z,8.60
2018-12-23T14:40:31.821Z,8.83
2018-12-23T14:45:36.875Z,10.97
2018-12-23T14:50:41.720Z,8.83
2018-12-23T14:55:47.545Z,6.70
2018-12-23T15:00:53.271Z,9.97
2018-12-23T15:05:58.373Z,17.50
2018-12-23T15:11:04.332Z,30.43
2018-12-23T15:16:09.339Z,15.83
2018-12-23T15:21:15.324Z,11.30
2018-12-23T15:26:20.449Z,8.23
2018-12-23T15:31:25.649Z,8.33
2018-12-23T15:36:30.620Z,8.40
2018-12-23T15:41:36.019Z,7.03
2018-12-23T15:46:41.505Z,8.67
2018-12-23T15:51:47.147Z,9.77
2018-12-23T15:56:52.170Z,9.57
2018-12-23T16:01:57.148Z,10.20
2018-12-23T16:07:02.423Z,9.80
2018-12-23T16:12:09.253Z,6.80
2018-12-23T16:17:14.400Z,9.10
2018-12-23T16:22:19.535Z,8.83
2018-12-23T16:27:24.499Z,18.23
2018-12-23T16:32:29.653Z,8.20
2018-12-23T16:37:35.790Z,10.67
2018-12-23T16:42:40.798Z,13.80
2018-12-23T16:47:45.752Z,9.10
2018-12-23T16:52:50.805Z,13.73
2018-12-23T16:57:55.934Z,20.27
2018-12-23T17:03:00.889Z,13.73
2018-12-23T17:08:06.892Z,11.63
2018-12-23T17:13:11.897Z,11.83
2018-12-23T17:18:17.359Z,11.27
2018-12-23T17:23:22.296Z,13.93
2018-12-23T17:28:28.238Z,14.27
2018-12-23T17:33:33.445Z,14.50
2018-12-23T17:38:39.351Z,10.97
2018-12-23T17:43:44.479Z,9.80
2018-12-23T17:48:49.344Z,7.60
2018-12-23T17:53:54.172Z,14.80
2018-12-23T17:58:59.151Z,13.63
2018-12-23T18:04:04.378Z,17.17
2018-12-23T18:09:09.339Z,10.47
2018-12-23T18:14:14.187Z,13.10
2018-12-23T18:19:19.043Z,9.53
2018-12-23T18:24:24.076Z,10.53
2018-12-23T18:29:29.002Z,13.07
2018-12-23T18:34:33.949Z,13.97
2018-12-23T18:39:39.002Z,15.00
2018-12-23T18:44:44.020Z,15.87
2018-12-23T18:49:49.093Z,13.20
2018-12-23T18:54:54.239Z,11.47
2018-12-23T18:59:59.235Z,8.93
2018-12-23T19:05:04.356Z,13.83
2018-12-23T19:10:23.143Z,15.13
2018-12-23T19:15:42.800Z,22.30
2018-12-23T19:20:59.319Z,12.30
2018-12-23T19:27:18.751Z,9.87
2018-12-23T19:32:36.654Z,13.20
2018-12-23T19:38:57.992Z,15.37
2018-12-23T19:46:13.412Z,9.80
2018-12-23T19:54:35.366Z,11.33
2018-12-23T19:59:54.344Z,10.10
2018-12-23T20:05:09.940Z,11.87
2018-12-23T20:10:29.846Z,13.27
2018-12-23T20:15:45.538Z,12.80
2018-12-23T20:21:09.529Z,13.60
2018-12-23T20:26:37.763Z,12.23
2018-12-23T20:34:04.188Z,12.33
2018-12-23T20:39:29.718Z,17.67
2018-12-23T20:44:47.786Z,21.57
2018-12-23T20:52:14.649Z,24.27
2018-12-23T20:57:59.735Z,21.53
2018-12-23T21:03:17.535Z,13.60
2018-12-23T21:09:35.701Z,13.20
2018-12-23T21:14:53.404Z,13.20
2018-12-23T21:22:17.711Z,16.10
2018-12-23T21:27:34.535Z,25.83
2018-12-23T21:34:48.098Z,21.67
2018-12-23T21:41:03.086Z,21.83
2018-12-23T21:46:18.562Z,18.50
2018-12-23T21:53:39.739Z,23.73
2018-12-23T21:58:59.455Z,22.57
2018-12-23T22:05:52.800Z,16.77
2018-12-23T22:11:23.706Z,14.63
2018-12-23T22:16:29.840Z,14.90
2018-12-23T22:21:35.973Z,12.33
2018-12-23T22:26:41.949Z,10.93
2018-12-23T22:31:48.148Z,13.27
2018-12-23T22:36:54.281Z,11.37
2018-12-23T22:42:00.297Z,17.67
2018-12-23T22:47:06.357Z,19.90
2018-12-23T22:52:12.536Z,13.20
2018-12-23T22:57:18.674Z,5.10
2018-12-23T23:02:24.767Z,2.87
2018-12-23T23:07:30.861Z,7.90
2018-12-23T23:12:37.025Z,3.33
2018-12-23T23:17:43.032Z,2.87
2018-12-23T23:22:49.045Z,5.87
2018-12-23T23:27:55.292Z,2.50
2018-12-23T23:33:01.403Z,1.80
2018-12-23T23:38:07.616Z,1.43
2018-12-23T23:43:13.558Z,0.80
2018-12-23T23:48:19.630Z,0.90
2018-12-23T23:53:25.894Z,0.73
2018-12-23T23:58:32.034Z,1.13
